Time;durP1;ratioP1;P1;durP2;ratioP2;P2;SDS_P1;SDS_P2;PMS_P1;PMS_P2;Temp;Humidity;BMP_temperature;BMP_pressure;BME280_temperature;BME280_humidity;BME280_pressure;Samples;Min_cycle;Max_cycle;Signal;HPM_P1;HPM_P2
2023/02/16 00:01:45;;;;;;;46.50;27.23;;;6.50;1.00;;;;;;5033405;28;20223;-63
2023/02/16 00:04:18;;;;;;;46.87;26.93;;;6.40;1.00;;;;;;5029370;28;20213;-64
2023/02/16 00:06:46;;;;;;;44.50;27.60;;;6.40;1.00;;;;;;5036099;28;20205;-65
2023/02/16 00:09:13;;;;;;;43.80;26.97;;;6.40;1.00;;;;;;5034993;28;21572;-64
2023/02/16 00:14:27;;;;;;;45.20;25.97;;;6.40;1.00;;;;;;5028210;28;20255;-64
2023/02/16 00:16:58;;;;;;;43.70;25.67;;;6.40;1.00;;;;;;5030628;28;20295;-63
2023/02/16 00:19:43;;;;;;;43.20;26.53;;;6.50;1.00;;;;;;5031459;28;20223;-63
2023/02/16 00:22:10;;;;;;;45.57;26.20;;;6.50;1.00;;;;;;5028086;28;20201;-64
2023/02/16 00:24:37;;;;;;;45.50;26.10;;;6.50;1.00;;;;;;5025021;28;20611;-63
2023/02/16 00:27:12;;;;;;;42.83;25.83;;;6.50;1.00;;;;;;5027539;28;20604;-64
2023/02/16 00:29:39;;;;;;;44.10;26.97;;;6.50;1.00;;;;;;5028207;28;20203;-63
2023/02/16 00:32:09;;;;;;;40.97;25.47;;;6.40;1.00;;;;;;5034035;28;20209;-63
2023/02/16 00:34:40;;;;;;;43.40;26.17;;;6.40;1.00;;;;;;5038793;28;20673;-64
2023/02/16 00:37:09;;;;;;;42.83;25.73;;;6.40;1.00;;;;;;5034576;28;20331;-63
2023/02/16 00:39:38;;;;;;;46.13;26.23;;;6.40;1.00;;;;;;5032848;28;20721;-63
2023/02/16 00:42:28;;;;;;;45.10;25.67;;;6.40;1.00;;;;;;5030687;28;20298;-63
2023/02/16 00:44:56;;;;;;;42.47;25.67;;;6.40;1.00;;;;;;5034653;28;20231;-63
2023/02/16 00:47:37;;;;;;;41.87;25.70;;;6.40;1.00;;;;;;5033104;28;20227;-63
2023/02/16 00:50:15;;;;;;;47.20;26.97;;;6.40;1.00;;;;;;5037153;28;20490;-63
2023/02/16 00:52:45;;;;;;;44.13;26.13;;;6.40;1.00;;;;;;5030588;28;20349;-64
2023/02/16 00:55:26;;;;;;;40.07;25.57;;;6.40;99.90;;;;;;5021920;28;20860;-63
2023/02/16 00:58:03;;;;;;;41.33;25.23;;;6.40;99.90;;;;;;5032921;28;20752;-63
2023/02/16 01:00:38;;;;;;;44.80;25.27;;;6.40;99.90;;;;;;5033611;28;20233;-64
2023/02/16 01:03:13;;;;;;;37.80;23.73;;;6.30;99.90;;;;;;5028295;28;20200;-63
2023/02/16 01:05:39;;;;;;;45.40;26.33;;;6.40;99.90;;;;;;5028116;28;20209;-63
2023/02/16 01:11:06;;;;;;;45.13;25.30;;;6.30;99.90;;;;;;5026409;28;20577;-63
2023/02/16 01:13:43;;;;;;;42.23;25.33;;;6.30;99.90;;;;;;5027630;28;20608;-63
2023/02/16 01:16:17;;;;;;;44.43;25.13;;;6.20;99.90;;;;;;5030415;28;20537;-63
2023/02/16 01:18:45;;;;;;;40.57;24.63;;;6.20;99.90;;;;;;5037682;28;20284;-63
2023/02/16 01:21:12;;;;;;;42.63;25.47;;;6.30;99.90;;;;;;5032986;28;20227;-64
2023/02/16 01:23:40;;;;;;;42.37;24.77;;;6.30;1.00;;;;;;5028849;28;20226;-63
2023/02/16 01:26:16;;;;;;;40.63;26.57;;;6.30;99.90;;;;;;5027326;28;20578;-63
2023/02/16 01:28:43;;;;;;;42.27;25.47;;;6.30;99.90;;;;;;5031329;28;20256;-64
2023/02/16 01:31:12;;;;;;;43.00;24.80;;;6.30;99.90;;;;;;5025892;28;20607;-64
2023/02/16 01:33:40;;;;;;;39.67;25.07;;;6.30;99.90;;;;;;5037353;28;20194;-63
2023/02/16 01:36:32;;;;;;;43.80;24.77;;;6.30;99.90;;;;;;5028952;28;20694;-63
2023/02/16 01:39:00;;;;;;;42.53;25.23;;;6.20;99.90;;;;;;5023861;28;20204;-63
2023/02/16 01:41:50;;;;;;;42.73;25.83;;;6.30;99.90;;;;;;5035343;28;20214;-64
2023/02/16 01:44:54;;;;;;;42.43;24.13;;;6.20;99.90;;;;;;5031227;28;20701;-64
2023/02/16 01:47:38;;;;;;;41.47;25.10;;;6.30;99.90;;;;;;5033196;28;20212;-64
2023/02/16 01:50:54;;;;;;;39.97;24.43;;;6.20;99.90;;;;;;5034866;28;20292;-63
2023/02/16 01:53:29;;;;;;;39.07;23.27;;;6.20;99.90;;;;;;5013219;28;20212;-63
2023/02/16 01:56:02;;;;;;;43.93;25.47;;;6.10;99.90;;;;;;5028539;28;20215;-63
2023/02/16 01:58:44;;;;;;;41.57;25.07;;;6.10;99.90;;;;;;5029127;28;20200;-63
2023/02/16 02:01:37;;;;;;;39.77;25.00;;;6.10;99.90;;;;;;5020006;28;20693;-63
2023/02/16 02:07:34;;;;;;;41.30;24.87;;;6.00;1.00;;;;;;5035815;28;20228;-63
2023/02/16 02:10:22;;;;;;;41.47;25.93;;;6.00;1.00;;;;;;5034188;28;20587;-64
2023/02/16 02:13:21;;;;;;;40.80;23.63;;;6.00;1.00;;;;;;5034253;28;20231;-64
2023/02/16 02:15:48;;;;;;;42.13;25.13;;;5.90;1.00;;;;;;5032574;28;20201;-63
2023/02/16 02:18:15;;;;;;;44.70;25.53;;;6.00;1.00;;;;;;5037331;28;20629;-63
2023/02/16 02:24:02;;;;;;;41.40;25.70;;;6.00;1.00;;;;;;5041435;28;20662;-69
2023/02/16 02:26:32;;;;;;;43.67;25.10;;;5.90;1.00;;;;;;5032418;28;20198;-64
2023/02/16 02:29:02;;;;;;;41.17;24.23;;;6.00;1.00;;;;;;5035985;28;20317;-63
2023/02/16 02:31:38;;;;;;;40.57;25.93;;;6.00;1.00;;;;;;5039274;28;20245;-64
2023/02/16 02:34:14;;;;;;;42.00;26.53;;;6.00;1.00;;;;;;5033998;28;20200;-64
2023/02/16 02:36:49;;;;;;;40.27;23.97;;;6.00;1.00;;;;;;5033766;28;20230;-63
2023/02/16 02:39:16;;;;;;;44.93;26.30;;;6.00;1.00;;;;;;5038170;28;20288;-63
2023/02/16 02:42:04;;;;;;;45.30;25.80;;;6.00;1.00;;;;;;5043688;28;20303;-63
2023/02/16 02:44:51;;;;;;;39.63;24.93;;;6.00;1.00;;;;;;5034702;28;20680;-63
2023/02/16 02:47:18;;;;;;;44.47;25.43;;;6.00;1.00;;;;;;5035266;28;20248;-63
2023/02/16 02:49:50;;;;;;;42.17;24.33;;;5.90;1.00;;;;;;5037731;28;20211;-63
2023/02/16 02:52:18;;;;;;;41.93;25.93;;;5.90;1.00;;;;;;5038785;28;20229;-63
2023/02/16 03:00:46;;;;;;;42.53;25.67;;;5.80;1.00;;;;;;5039829;28;20357;-63
2023/02/16 03:03:34;;;;;;;42.87;24.70;;;5.80;1.00;;;;;;5045582;28;20692;-63
2023/02/16 03:06:19;;;;;;;44.40;24.53;;;5.80;1.00;;;;;;5037550;28;20193;-63
2023/02/16 03:08:53;;;;;;;46.80;26.20;;;5.80;1.00;;;;;;5036282;28;20312;-63
2023/02/16 03:14:21;;;;;;;45.23;26.20;;;5.70;1.00;;;;;;5039477;28;20664;-63
2023/02/16 03:31:12;;;;;;;49.30;27.07;;;5.60;1.00;;;;;;5038733;28;20609;-63
2023/02/16 03:33:40;;;;;;;45.37;26.60;;;5.60;1.00;;;;;;5037373;28;20319;-62
2023/02/16 03:36:08;;;;;;;43.83;26.07;;;5.50;99.90;;;;;;5034362;28;20774;-63
2023/02/16 03:38:36;;;;;;;48.63;28.13;;;5.50;99.90;;;;;;5036546;28;20338;-62
2023/02/16 03:41:04;;;;;;;47.77;26.53;;;5.60;66.00;;;;;;5031485;28;20703;-63
2023/02/16 03:43:31;;;;;;;47.40;26.17;;;5.60;1.00;;;;;;5033842;28;20196;-62
2023/02/16 03:45:58;;;;;;;45.63;25.60;;;5.60;1.00;;;;;;5034491;28;20235;-63
2023/02/16 03:48:26;;;;;;;51.67;29.97;;;5.70;1.00;;;;;;5035656;28;20206;-63
2023/02/16 03:50:53;;;;;;;51.23;28.03;;;5.70;1.00;;;;;;5037204;28;20214;-63
2023/02/16 03:53:20;;;;;;;43.80;26.93;;;5.70;1.00;;;;;;5036226;28;20196;-63
2023/02/16 03:55:47;;;;;;;44.70;27.60;;;5.70;1.00;;;;;;5038709;28;20212;-63
2023/02/16 03:58:21;;;;;;;46.47;27.60;;;5.70;1.00;;;;;;5035987;28;20647;-63
2023/02/16 04:00:49;;;;;;;47.03;27.40;;;5.70;1.00;;;;;;5037478;28;20224;-63
2023/02/16 04:03:16;;;;;;;52.37;29.00;;;5.70;1.00;;;;;;5035800;28;20202;-63
2023/02/16 04:05:44;;;;;;;48.50;27.90;;;5.80;1.00;;;;;;5034087;28;20295;-63
2023/02/16 04:08:11;;;;;;;48.23;27.60;;;5.80;1.00;;;;;;5036911;28;20208;-63
2023/02/16 04:10:38;;;;;;;45.60;28.80;;;5.80;1.00;;;;;;5034189;28;20212;-63
2023/02/16 04:13:05;;;;;;;51.60;27.90;;;5.80;1.00;;;;;;5037448;28;20207;-63
2023/02/16 04:15:33;;;;;;;47.20;26.80;;;5.80;1.00;;;;;;5033696;28;20211;-63
2023/02/16 04:18:00;;;;;;;43.80;27.77;;;5.80;1.00;;;;;;5034612;28;20219;-62
2023/02/16 04:20:30;;;;;;;42.63;25.97;;;5.70;1.00;;;;;;5036903;28;20209;-63
2023/02/16 04:22:57;;;;;;;50.57;29.10;;;5.70;1.00;;;;;;5037028;28;20361;-63
2023/02/16 04:25:24;;;;;;;49.07;28.10;;;5.70;7.30;;;;;;5035207;28;20210;-62
2023/02/16 04:27:52;;;;;;;50.63;29.03;;;5.80;29.90;;;;;;5036141;28;20777;-63
2023/02/16 04:30:25;;;;;;;46.27;28.00;;;5.80;1.00;;;;;;5036505;28;20212;-63
2023/02/16 04:32:52;;;;;;;47.27;27.80;;;5.90;1.00;;;;;;5035609;28;20608;-63
2023/02/16 04:35:19;;;;;;;45.57;28.20;;;5.80;1.00;;;;;;5034923;28;20207;-63
2023/02/16 04:37:46;;;;;;;48.03;27.53;;;5.80;1.00;;;;;;5037534;28;20712;-63
2023/02/16 04:40:15;;;;;;;50.37;28.50;;;5.90;1.00;;;;;;5035124;28;20291;-63
2023/02/16 04:42:43;;;;;;;43.53;26.70;;;6.00;1.00;;;;;;5036933;28;20204;-63
2023/02/16 04:45:11;;;;;;;44.47;26.70;;;5.90;1.00;;;;;;5034350;28;20393;-63
2023/02/16 04:47:37;;;;;;;50.43;27.37;;;5.90;1.00;;;;;;5032627;28;20224;-63
2023/02/16 04:50:05;;;;;;;44.63;26.97;;;6.00;1.00;;;;;;5033293;28;20197;-67
2023/02/16 04:52:33;;;;;;;43.97;27.53;;;6.00;1.00;;;;;;5037579;28;20224;-62
2023/02/16 04:55:00;;;;;;;42.23;27.23;;;6.00;1.00;;;;;;5031505;28;20205;-63
2023/02/16 04:57:26;;;;;;;47.37;27.47;;;6.10;1.00;;;;;;5031727;28;20240;-63
2023/02/16 04:59:54;;;;;;;49.53;28.63;;;6.00;1.00;;;;;;5033495;28;20235;-64
2023/02/16 05:02:20;;;;;;;44.83;28.60;;;5.90;1.00;;;;;;5037127;28;20213;-63
2023/02/16 05:04:47;;;;;;;48.13;28.47;;;5.90;1.00;;;;;;5036995;28;20206;-63
2023/02/16 05:07:14;;;;;;;47.73;27.87;;;5.90;1.00;;;;;;5035714;28;20198;-62
2023/02/16 05:09:41;;;;;;;50.37;28.47;;;5.90;1.00;;;;;;5035843;28;20201;-62
2023/02/16 05:14:55;;;;;;;50.83;27.77;;;5.90;1.00;;;;;;5036667;28;20206;-64
2023/02/16 05:17:24;;;;;;;46.80;28.20;;;5.90;1.00;;;;;;5038492;28;20205;-63
2023/02/16 05:19:53;;;;;;;45.03;27.67;;;5.90;1.00;;;;;;5035653;28;20569;-62
2023/02/16 05:22:20;;;;;;;47.77;28.43;;;5.90;1.00;;;;;;5038384;28;20253;-63
2023/02/16 05:24:48;;;;;;;46.80;27.77;;;5.90;1.00;;;;;;5036071;28;20328;-63
2023/02/16 05:27:17;;;;;;;53.57;28.83;;;5.90;1.00;;;;;;5034498;28;20629;-62
2023/02/16 05:29:44;;;;;;;47.67;27.37;;;5.90;1.00;;;;;;5036855;28;20235;-62
2023/02/16 05:32:11;;;;;;;48.83;28.83;;;5.80;1.00;;;;;;5033836;28;20618;-63
2023/02/16 05:34:38;;;;;;;47.70;28.37;;;5.90;1.00;;;;;;5032104;28;20585;-63
2023/02/16 05:37:05;;;;;;;42.97;26.47;;;5.90;1.00;;;;;;5033677;28;20316;-63
2023/02/16 05:39:32;;;;;;;49.20;28.93;;;6.00;1.00;;;;;;5033399;28;20631;-63
2023/02/16 05:41:59;;;;;;;47.37;27.80;;;6.00;1.00;;;;;;5035757;28;20220;-63
2023/02/16 05:44:26;;;;;;;51.17;28.03;;;6.00;1.00;;;;;;5037600;28;20768;-62
2023/02/16 05:46:53;;;;;;;40.33;25.80;;;6.00;1.00;;;;;;5034772;28;20283;-63
2023/02/16 05:49:20;;;;;;;48.23;28.00;;;6.00;1.00;;;;;;5033158;28;20707;-63
2023/02/16 05:51:46;;;;;;;49.43;27.83;;;6.10;1.00;;;;;;5032689;28;20199;-62
2023/02/16 05:54:16;;;;;;;46.13;27.97;;;6.10;1.00;;;;;;5034088;28;20223;-62
2023/02/16 05:56:49;;;;;;;49.07;27.57;;;6.10;1.00;;;;;;5039027;28;20293;-63
2023/02/16 05:59:16;;;;;;;44.03;28.20;;;6.10;1.00;;;;;;5040375;28;20246;-61
2023/02/16 06:01:45;;;;;;;49.53;28.33;;;6.10;1.00;;;;;;5039416;28;20877;-61
2023/02/16 06:04:17;;;;;;;51.53;28.50;;;6.10;1.00;;;;;;5041402;28;20298;-61
2023/02/16 06:06:44;;;;;;;47.17;27.67;;;6.20;1.00;;;;;;5041051;28;20292;-61
2023/02/16 06:09:11;;;;;;;51.90;27.47;;;6.10;1.00;;;;;;5040046;28;20210;-65
2023/02/16 06:11:38;;;;;;;45.70;27.37;;;6.10;1.00;;;;;;5040565;28;20270;-61
2023/02/16 06:14:13;;;;;;;44.97;26.73;;;6.10;1.00;;;;;;5042134;28;20681;-60
2023/02/16 06:16:43;;;;;;;43.60;26.50;;;6.10;1.00;;;;;;5040123;28;20278;-60
2023/02/16 06:19:10;;;;;;;47.20;27.53;;;6.10;1.00;;;;;;5041028;28;20217;-63
2023/02/16 06:21:38;;;;;;;44.67;26.03;;;6.20;1.00;;;;;;5039885;28;20322;-61
2023/02/16 06:24:07;;;;;;;48.03;28.70;;;6.10;1.00;;;;;;5042255;28;20234;-63
2023/02/16 06:26:35;;;;;;;49.50;27.77;;;6.20;1.00;;;;;;5037035;28;20231;-65
2023/02/16 06:29:02;;;;;;;42.87;27.93;;;6.10;12.00;;;;;;5037999;28;20198;-62
2023/02/16 06:31:29;;;;;;;45.13;27.50;;;6.10;57.10;;;;;;5038721;28;20214;-63
2023/02/16 06:33:56;;;;;;;44.47;26.90;;;6.20;99.90;;;;;;5040974;28;20728;-64
2023/02/16 06:36:23;;;;;;;51.13;27.87;;;6.20;45.50;;;;;;5039648;28;20243;-63
2023/02/16 06:38:51;;;;;;;49.93;28.13;;;6.20;37.50;;;;;;5040756;28;20294;-63
2023/02/16 06:41:30;;;;;;;42.83;26.33;;;6.20;99.90;;;;;;5039240;28;20303;-63
2023/02/16 06:43:58;;;;;;;43.40;26.10;;;6.30;81.70;;;;;;5038353;28;20202;-63
2023/02/16 06:46:26;;;;;;;43.77;26.90;;;6.30;23.10;;;;;;5037892;28;20574;-63
2023/02/16 06:48:53;;;;;;;42.43;26.70;;;6.30;1.00;;;;;;5038098;28;20269;-63
2023/02/16 06:51:20;;;;;;;44.40;26.70;;;6.20;1.00;;;;;;5035555;28;20206;-63
2023/02/16 06:53:47;;;;;;;46.90;27.80;;;6.30;63.70;;;;;;5039013;28;20213;-63
2023/02/16 06:56:14;;;;;;;47.90;27.77;;;6.30;1.00;;;;;;5036739;28;20299;-62
2023/02/16 06:58:41;;;;;;;47.30;27.90;;;6.30;1.00;;;;;;5036730;28;20203;-63
2023/02/16 07:01:07;;;;;;;39.23;24.93;;;6.30;97.70;;;;;;5028755;28;20677;-63
2023/02/16 07:03:34;;;;;;;45.67;26.80;;;6.30;46.60;;;;;;5040409;28;20619;-64
2023/02/16 07:06:01;;;;;;;48.63;26.83;;;6.30;99.90;;;;;;5034089;28;20278;-65
2023/02/16 07:08:28;;;;;;;47.63;26.93;;;6.20;99.90;;;;;;5039015;28;20197;-63
2023/02/16 07:10:55;;;;;;;45.70;26.97;;;6.20;99.90;;;;;;5037893;28;20644;-63
2023/02/16 07:13:22;;;;;;;43.07;27.17;;;6.30;99.90;;;;;;5033889;28;20619;-63
2023/02/16 07:15:49;;;;;;;44.10;27.30;;;6.30;1.00;;;;;;4666936;28;9999808;-63
2023/02/16 07:18:16;;;;;;;43.93;26.33;;;6.40;99.90;;;;;;5015782;28;20204;-63
2023/02/16 07:20:42;;;;;;;44.43;26.87;;;6.40;99.90;;;;;;5031053;28;20225;-63
2023/02/16 07:23:09;;;;;;;43.23;26.63;;;6.50;99.90;;;;;;5030980;28;20784;-63
2023/02/16 07:25:36;;;;;;;46.60;27.10;;;6.50;92.90;;;;;;5026884;28;20195;-63
2023/02/16 07:28:03;;;;;;;43.73;26.33;;;6.50;99.90;;;;;;5030761;28;20227;-63
2023/02/16 07:30:30;;;;;;;49.20;26.80;;;6.60;52.00;;;;;;5030464;28;20205;-63
2023/02/16 07:32:57;;;;;;;44.47;26.50;;;6.60;1.00;;;;;;5028790;28;20729;-63
2023/02/16 07:35:24;;;;;;;41.33;26.40;;;6.60;97.70;;;;;;5020203;28;20199;-63
2023/02/16 07:37:51;;;;;;;44.40;25.90;;;6.70;1.00;;;;;;5025731;28;20251;-63
2023/02/16 07:40:18;;;;;;;42.93;26.53;;;6.70;1.00;;;;;;5030948;28;20660;-65
2023/02/16 07:42:44;;;;;;;42.23;25.80;;;6.70;33.50;;;;;;5030600;28;20588;-62
2023/02/16 07:45:11;;;;;;;40.97;25.77;;;6.80;1.00;;;;;;5029260;28;20685;-62
2023/02/16 07:47:38;;;;;;;45.70;26.00;;;6.80;1.00;;;;;;5030454;28;20292;-65
2023/02/16 07:50:05;;;;;;;40.73;26.23;;;6.80;1.00;;;;;;5029690;28;20290;-63
2023/02/16 07:52:33;;;;;;;41.63;25.83;;;6.80;1.00;;;;;;5030846;28;20209;-62
2023/02/16 07:55:00;;;;;;;44.97;25.57;;;6.80;1.00;;;;;;5023600;28;20278;-62
2023/02/16 07:57:27;;;;;;;47.17;26.17;;;6.80;1.00;;;;;;5024018;28;20207;-63
2023/02/16 07:59:55;;;;;;;43.30;25.27;;;6.80;1.00;;;;;;5028775;28;20634;-63
2023/02/16 08:02:22;;;;;;;47.37;26.63;;;6.90;1.00;;;;;;5029915;28;20211;-62
2023/02/16 08:04:51;;;;;;;38.60;25.10;;;6.90;1.00;;;;;;5027292;28;20246;-63
2023/02/16 08:07:18;;;;;;;39.47;24.60;;;6.90;1.00;;;;;;5023244;28;20213;-63
2023/02/16 08:09:46;;;;;;;47.30;26.03;;;7.00;1.00;;;;;;5021473;28;20844;-62
2023/02/16 08:12:14;;;;;;;41.63;25.33;;;7.00;1.00;;;;;;5031327;28;20712;-64
2023/02/16 08:14:42;;;;;;;42.17;25.23;;;7.00;1.00;;;;;;5030814;28;20218;-62
2023/02/16 08:17:09;;;;;;;41.93;25.17;;;7.10;1.00;;;;;;5023996;28;20624;-63
2023/02/16 08:19:36;;;;;;;40.13;24.43;;;7.10;1.00;;;;;;5027724;28;20749;-62
2023/02/16 08:22:03;;;;;;;42.53;24.97;;;7.20;1.00;;;;;;5032508;28;20691;-63
2023/02/16 08:24:30;;;;;;;41.90;26.23;;;7.20;1.00;;;;;;5027730;28;20204;-62
2023/02/16 08:26:57;;;;;;;36.60;25.03;;;7.20;1.00;;;;;;5021870;28;20232;-63
2023/02/16 08:29:24;;;;;;;41.30;24.70;;;7.40;1.00;;;;;;5014141;28;20207;-65
2023/02/16 08:31:52;;;;;;;41.13;25.80;;;7.40;1.00;;;;;;5023383;28;20631;-64
2023/02/16 08:34:20;;;;;;;42.37;25.90;;;7.30;1.00;;;;;;5030856;28;20207;-69
2023/02/16 08:36:51;;;;;;;42.27;25.73;;;7.40;1.00;;;;;;5032133;28;20645;-64
2023/02/16 08:39:21;;;;;;;41.80;24.83;;;7.40;1.00;;;;;;5031435;28;20230;-65
2023/02/16 08:41:49;;;;;;;40.20;24.03;;;7.40;1.00;;;;;;5032200;28;20241;-65
2023/02/16 08:44:17;;;;;;;40.37;25.60;;;7.40;1.00;;;;;;5029869;28;20247;-65
2023/02/16 08:46:46;;;;;;;39.53;23.67;;;7.40;1.00;;;;;;5023628;28;20202;-64
2023/02/16 08:49:16;;;;;;;37.27;24.10;;;7.50;1.00;;;;;;5027461;28;20231;-65
2023/02/16 08:51:46;;;;;;;36.40;23.57;;;7.50;1.00;;;;;;5037827;28;20604;-64
2023/02/16 08:54:19;;;;;;;41.57;24.77;;;7.50;1.00;;;;;;5027992;28;20214;-64
2023/02/16 08:56:48;;;;;;;41.10;24.47;;;7.50;1.00;;;;;;5031939;28;20207;-65
2023/02/16 08:59:16;;;;;;;36.43;24.03;;;7.50;1.00;;;;;;5027432;28;20712;-65
2023/02/16 09:01:44;;;;;;;37.00;24.07;;;7.60;1.00;;;;;;5025331;28;20219;-64
2023/02/16 09:04:11;;;;;;;39.43;24.10;;;7.60;1.00;;;;;;5025666;28;20202;-65
2023/02/16 09:06:41;;;;;;;37.47;23.33;;;7.60;1.00;;;;;;5031594;28;20200;-64
2023/02/16 09:09:09;;;;;;;41.17;25.07;;;7.60;1.00;;;;;;5028682;28;20208;-65
2023/02/16 09:11:36;;;;;;;36.17;24.07;;;7.70;1.00;;;;;;5029239;28;20215;-65
2023/02/16 09:14:03;;;;;;;37.80;23.27;;;7.70;1.00;;;;;;5024624;28;20209;-64
2023/02/16 09:16:37;;;;;;;38.10;24.67;;;7.70;99.90;;;;;;5027412;28;20323;-64
2023/02/16 09:19:05;;;;;;;36.30;22.80;;;7.70;1.00;;;;;;5027686;28;20575;-65
2023/02/16 09:21:32;;;;;;;39.40;22.57;;;7.70;1.00;;;;;;5027270;28;20222;-65
2023/02/16 09:24:03;;;;;;;39.70;23.53;;;7.70;1.00;;;;;;5030607;28;20206;-65
2023/02/16 09:26:33;;;;;;;38.73;23.93;;;7.70;1.00;;;;;;5029987;28;20197;-65
2023/02/16 09:29:00;;;;;;;36.57;23.77;;;7.70;1.00;;;;;;5031362;28;20716;-65
2023/02/16 09:31:31;;;;;;;38.03;22.93;;;7.70;1.00;;;;;;5031966;28;20915;-65
2023/02/16 09:34:19;;;;;;;40.97;24.70;;;7.60;48.20;;;;;;5024085;28;20742;-64
2023/02/16 09:36:46;;;;;;;40.27;23.63;;;7.70;99.90;;;;;;5020627;28;20240;-65
2023/02/16 09:39:13;;;;;;;36.10;23.33;;;7.60;99.90;;;;;;5030051;28;20212;-64
2023/02/16 09:41:52;;;;;;;35.50;23.10;;;7.70;1.00;;;;;;5032757;28;20326;-65
2023/02/16 09:44:44;;;;;;;36.07;23.77;;;7.60;1.00;;;;;;5030038;28;20198;-65
2023/02/16 09:47:18;;;;;;;36.90;23.83;;;7.60;99.90;;;;;;5028797;28;20764;-65
2023/02/16 09:49:47;;;;;;;37.73;25.00;;;7.60;1.00;;;;;;5030925;28;20202;-64
2023/02/16 09:52:25;;;;;;;40.27;24.60;;;7.60;29.40;;;;;;5031578;28;20205;-64
2023/02/16 09:54:54;;;;;;;40.93;25.60;;;7.60;1.00;;;;;;5033213;28;20199;-64
2023/02/16 09:57:30;;;;;;;38.90;25.50;;;7.70;1.00;;;;;;5030407;28;20201;-64
2023/02/16 10:00:06;;;;;;;44.83;26.63;;;7.70;99.90;;;;;;5032456;28;20670;-63
2023/02/16 10:02:58;;;;;;;40.27;24.80;;;7.70;1.00;;;;;;5030657;28;20232;-64
2023/02/16 10:05:29;;;;;;;44.37;26.73;;;7.60;99.90;;;;;;5024663;28;20198;-64
2023/02/16 10:08:08;;;;;;;45.70;26.10;;;7.70;99.90;;;;;;5031903;28;20288;-64
2023/02/16 10:10:42;;;;;;;42.03;23.90;;;7.70;1.00;;;;;;5035095;28;20208;-65
2023/02/16 10:13:16;;;;;;;40.17;25.73;;;7.70;1.00;;;;;;5031498;28;20211;-64
2023/02/16 10:15:44;;;;;;;42.20;25.07;;;7.70;1.00;;;;;;5028928;28;20200;-65
2023/02/16 10:18:33;;;;;;;38.30;25.67;;;7.70;99.90;;;;;;5028651;28;21519;-64
2023/02/16 10:21:06;;;;;;;40.60;26.07;;;7.70;1.00;;;;;;5034285;28;20332;-64
2023/02/16 10:23:48;;;;;;;43.50;26.10;;;7.70;1.00;;;;;;5026845;28;20694;-64
2023/02/16 10:26:39;;;;;;;42.60;26.47;;;7.70;1.00;;;;;;5031546;28;20208;-64
2023/02/16 10:29:12;;;;;;;42.47;27.27;;;7.70;1.00;;;;;;5032725;28;20245;-65
2023/02/16 10:31:43;;;;;;;36.63;24.57;;;7.60;1.00;;;;;;5026670;28;20794;-64
2023/02/16 10:34:21;;;;;;;38.37;24.67;;;7.70;1.00;;;;;;5029000;28;20207;-65
2023/02/16 10:37:10;;;;;;;41.53;25.50;;;7.70;11.70;;;;;;5030762;28;20224;-64
2023/02/16 10:40:00;;;;;;;40.20;25.63;;;7.70;99.90;;;;;;5022777;28;20288;-64
2023/02/16 10:42:37;;;;;;;39.10;24.57;;;7.70;99.90;;;;;;5030130;28;20256;-64
2023/02/16 10:45:14;;;;;;;37.63;23.87;;;7.60;99.90;;;;;;5030592;28;20265;-64
2023/02/16 10:47:44;;;;;;;42.83;26.90;;;7.60;99.90;;;;;;5029083;28;20250;-64
2023/02/16 10:50:51;;;;;;;46.40;25.77;;;7.70;99.90;;;;;;5028569;28;20210;-65
2023/02/16 10:53:26;;;;;;;42.90;27.03;;;7.70;99.90;;;;;;5020987;28;20198;-64
2023/02/16 10:55:56;;;;;;;38.50;25.80;;;7.70;99.90;;;;;;5023828;28;20214;-64
2023/02/16 10:58:37;;;;;;;42.23;26.17;;;7.70;99.90;;;;;;5030022;28;20245;-64
2023/02/16 11:01:10;;;;;;;42.50;26.40;;;7.80;99.90;;;;;;5030907;28;20274;-64
2023/02/16 11:03:45;;;;;;;39.63;26.33;;;7.70;99.90;;;;;;5034090;28;20565;-64
2023/02/16 11:06:18;;;;;;;39.77;26.10;;;7.70;99.90;;;;;;5021065;28;20292;-64
2023/02/16 11:08:58;;;;;;;40.97;26.73;;;7.70;99.90;;;;;;5017899;28;20195;-64
2023/02/16 11:11:45;;;;;;;45.17;28.00;;;7.70;99.90;;;;;;5020377;28;20212;-64
2023/02/16 11:14:22;;;;;;;43.57;27.17;;;8.00;99.90;;;;;;5033934;28;20657;-64
2023/02/16 11:17:22;;;;;;;42.17;27.47;;;7.80;99.90;;;;;;5029994;28;20225;-64
2023/02/16 11:19:52;;;;;;;42.17;25.70;;;7.90;99.90;;;;;;5028216;28;20222;-64
2023/02/16 11:22:35;;;;;;;39.07;25.70;;;8.00;99.90;;;;;;5032043;28;20216;-64
2023/02/16 11:25:20;;;;;;;44.77;26.77;;;7.90;99.90;;;;;;5031580;28;20205;-62
2023/02/16 11:28:07;;;;;;;38.60;25.07;;;8.00;99.90;;;;;;5030883;28;20668;-63
2023/02/16 11:30:37;;;;;;;42.80;25.23;;;8.00;99.90;;;;;;5034752;28;20200;-62
2023/02/16 11:33:25;;;;;;;43.07;26.60;;;8.10;99.90;;;;;;5034560;28;20233;-64
2023/02/16 11:35:54;;;;;;;42.70;26.73;;;8.10;99.90;;;;;;5034519;28;20234;-63
2023/02/16 11:38:33;;;;;;;45.47;24.97;;;8.20;99.90;;;;;;5033222;28;20287;-61
2023/02/16 11:41:05;;;;;;;39.03;25.80;;;8.20;99.90;;;;;;5035972;28;21099;-63
2023/02/16 11:43:36;;;;;;;44.40;26.13;;;8.40;99.90;;;;;;5034429;28;20302;-61
2023/02/16 11:46:17;;;;;;;43.70;27.83;;;8.40;99.90;;;;;;5032459;28;20273;-62
2023/02/16 11:48:45;;;;;;;44.27;27.60;;;8.40;99.90;;;;;;5034205;28;20203;-62
2023/02/16 11:51:14;;;;;;;40.90;26.13;;;8.40;99.90;;;;;;5031382;28;20293;-62
2023/02/16 11:53:43;;;;;;;38.43;25.73;;;8.50;99.90;;;;;;5049484;28;20208;-62
2023/02/16 11:56:23;;;;;;;41.43;25.23;;;8.60;99.90;;;;;;5034654;28;20197;-64
2023/02/16 11:59:02;;;;;;;40.03;24.70;;;8.40;99.90;;;;;;5030774;28;20557;-62
2023/02/16 12:02:07;;;;;;;41.20;25.30;;;8.40;99.90;;;;;;5030717;28;20699;-61
2023/02/16 12:05:02;;;;;;;41.23;25.57;;;8.60;99.90;;;;;;5036909;28;20208;-61
2023/02/16 12:07:54;;;;;;;46.20;25.63;;;8.70;99.90;;;;;;5033526;28;20209;-61
2023/02/16 12:10:37;;;;;;;40.33;26.00;;;8.90;99.90;;;;;;5034137;28;20209;-61
2023/02/16 12:13:25;;;;;;;41.93;25.17;;;8.90;99.90;;;;;;5033333;28;21469;-61
2023/02/16 12:16:25;;;;;;;42.17;25.77;;;9.00;99.90;;;;;;5029304;28;21322;-60
2023/02/16 12:19:19;;;;;;;38.20;26.57;;;9.10;99.90;;;;;;5031581;28;20645;-60
2023/02/16 12:21:50;;;;;;;41.80;26.00;;;9.20;99.90;;;;;;5032016;28;20576;-62
2023/02/16 12:24:26;;;;;;;42.47;25.77;;;9.40;99.90;;;;;;5027267;28;20215;-61
2023/02/16 12:26:57;;;;;;;38.03;24.97;;;9.30;99.90;;;;;;5030300;28;20207;-61
2023/02/16 12:29:30;;;;;;;36.43;25.83;;;9.50;99.90;;;;;;5041236;28;20303;-62
2023/02/16 12:32:03;;;;;;;36.90;24.47;;;10.00;54.30;;;;;;5020770;28;22495;-61
2023/02/16 12:34:43;;;;;;;39.83;25.57;;;10.50;1.00;;;;;;5023993;28;20203;-65
2023/02/16 12:37:30;;;;;;;36.63;23.93;;;10.40;1.00;;;;;;5008737;28;20686;-64
2023/02/16 12:40:40;;;;;;;33.70;23.57;;;10.50;29.50;;;;;;5020027;28;20202;-63
2023/02/16 12:43:37;;;;;;;36.33;22.57;;;11.20;99.90;;;;;;5028279;28;20243;-62
2023/02/16 12:46:25;;;;;;;33.20;21.10;;;11.60;99.90;;;;;;5026612;28;20225;-62
2023/02/16 12:49:19;;;;;;;31.20;20.67;;;11.70;1.00;;;;;;5025567;28;20733;-61
2023/02/16 12:52:17;;;;;;;35.87;22.77;;;11.80;1.00;;;;;;5028157;28;20224;-61
2023/02/16 12:54:54;;;;;;;30.63;20.80;;;12.10;99.90;;;;;;5026183;28;20291;-64
2023/02/16 12:57:26;;;;;;;33.77;22.97;;;12.20;99.90;;;;;;5026791;28;20294;-60
2023/02/16 13:00:33;;;;;;;28.97;20.83;;;11.90;1.00;;;;;;5026101;28;20208;-63
2023/02/16 13:03:18;;;;;;;28.53;21.03;;;11.40;1.00;;;;;;5034118;28;20215;-62
2023/02/16 13:05:52;;;;;;;28.57;20.47;;;11.70;1.00;;;;;;5032917;28;20206;-62
2023/02/16 13:08:49;;;;;;;26.53;18.87;;;12.00;1.00;;;;;;5027940;28;20199;-61
2023/02/16 13:11:21;;;;;;;25.17;19.07;;;11.90;1.00;;;;;;5027900;28;20204;-61
2023/02/16 13:13:50;;;;;;;28.83;18.13;;;11.70;99.90;;;;;;5027699;28;20206;-61
2023/02/16 13:16:31;;;;;;;26.27;17.97;;;11.50;41.10;;;;;;5030242;28;20239;-61
2023/02/16 13:18:58;;;;;;;26.23;18.43;;;11.70;68.20;;;;;;5026525;28;20284;-61
2023/02/16 13:21:52;;;;;;;30.57;18.73;;;11.90;16.50;;;;;;5024630;28;20859;-64
2023/02/16 13:24:38;;;;;;;26.93;18.03;;;11.80;1.00;;;;;;5031237;28;20298;-60
2023/02/16 13:27:11;;;;;;;29.27;19.03;;;11.60;99.90;;;;;;5025241;28;20326;-61
2023/02/16 13:30:00;;;;;;;28.70;19.27;;;11.40;99.90;;;;;;5024821;28;20195;-62
2023/02/16 13:32:50;;;;;;;25.20;15.20;;;11.40;99.90;;;;;;5030270;28;20207;-62
2023/02/16 13:35:58;;;;;;;29.23;19.00;;;11.20;1.00;;;;;;5029561;28;20297;-61
2023/02/16 13:38:50;;;;;;;25.67;16.40;;;11.10;1.00;;;;;;5020309;28;20233;-60
2023/02/16 13:41:35;;;;;;;26.53;16.80;;;11.30;1.00;;;;;;5024350;28;20296;-62
2023/02/16 13:44:14;;;;;;;25.93;17.07;;;11.30;1.00;;;;;;5021106;28;20211;-61
2023/02/16 13:46:51;;;;;;;28.23;18.80;;;11.50;1.00;;;;;;5020042;28;20730;-60
2023/02/16 13:49:41;;;;;;;29.10;17.60;;;11.50;1.00;;;;;;5021626;28;20199;-61
2023/02/16 13:52:10;;;;;;;28.47;16.23;;;11.40;1.00;;;;;;5028360;28;20196;-60
2023/02/16 13:54:42;;;;;;;27.57;17.40;;;11.30;1.00;;;;;;5024166;28;20238;-62